Shokyu Maru — JG5288 — position and weather

sailwx.info

Track history (hours):
 
Tides and Currents Weather Stations Pressure Air Temp Water Temp Dewpoint Dewpoint Depression Visibility Wind Speed Wind Dir Waves Ship Positions

Shokyu Maru

Last reported at 2016-May-06 21:33 UTC. Time now 2016-May-06 22:32 UTC.
Position N 35°39' E 139°58'.

Length 91 m; draft 5.1 m.

Type: Ship. MMSI: 431000253.

Date/timePositionNaut miles runAvg speedWind from/ knotsBaromVisibWave heightAir tempDewpointWater temp
2016-May-06 21:33N 35°39' E 139°58'4 3.9
2016-May-06 20:30N 35°36' E 139°55'0 0.0
2016-May-06 19:32N 35°36' E 139°55'0 0.0
2016-May-06 18:32N 35°36' E 139°55'0 0.0
2016-May-06 17:32N 35°36' E 139°55'0 0.0
2016-May-06 16:29N 35°36' E 139°55'0 0.0
2016-May-06 15:29N 35°36' E 139°55'5 5.1
2016-May-06 14:34N 35°32' E 139°51'5 5.3
2016-May-06 13:33N 35°30' E 139°45'0 0.0
2016-May-06 12:33N 35°30' E 139°45'0 0.0
2016-May-06 11:33N 35°30' E 139°45'0 0.0
2016-May-06 10:33N 35°30' E 139°45'2 1.7
2016-May-06 09:34N 35°29' E 139°43'5 4.5
2016-May-06 08:32N 35°29' E 139°49'0 0.0
2016-May-06 07:32N 35°29' E 139°49'0 0.0
2016-May-06 06:32N 35°29' E 139°49'0 0.0
2016-May-06 05:29N 35°29' E 139°49'0 0.1
2016-May-06 04:32N 35°29' E 139°49'0 0.1
2016-May-06 03:32N 35°29' E 139°49'3 2.6
2016-May-06 02:33N 35°31' E 139°51'10 9.7
2016-May-06 01:33N 35°39' E 139°58'2 2.0
2016-May-06 00:30N 35°41' E 139°56'0 0.0
2016-May-05 23:12N 35°41' E 139°56'0 0.0
2016-May-05 22:30N 35°41' E 139°56'2 2.1
2016-May-05 21:34N 35°39' E 139°58'4 4.1
2016-May-05 20:34N 35°36' E 139°55'0 0.0
2016-May-05 19:31N 35°36' E 139°55'0 0.0
2016-May-05 18:28N 35°36' E 139°55'0 0.0
2016-May-05 17:31N 35°36' E 139°55'0 0.1
2016-May-05 16:31N 35°36' E 139°55'0 0.0
2016-May-05 15:04N 35°36' E 139°55'0 0.0
2016-May-05 14:28N 35°36' E 139°55'0 0.0
2016-May-05 13:31N 35°36' E 139°55'0 0.0
2016-May-05 12:31N 35°36' E 139°55'0 0.0
2016-May-05 11:31N 35°36' E 139°55'3 2.9
2016-May-05 10:34N 35°33' E 139°53'1010.1
2016-May-05 09:33N 35°26' E 139°44'4 4.3
2016-May-05 08:33N 35°24' E 139°40'0 0.0
2016-May-05 07:33N 35°24' E 139°40'0 0.0
2016-May-05 06:33N 35°24' E 139°40'0 0.0
2016-May-05 05:33N 35°24' E 139°40'2 2.2
2016-May-05 04:33N 35°23' E 139°41'5 5.1
2016-May-05 03:33N 35°27' E 139°45'8 8.5
2016-May-05 02:33N 35°32' E 139°53'8 7.9
2016-May-05 01:33N 35°40' E 139°57'1 1.2
2016-May-05 00:31N 35°41' E 139°56'0 0.0
2016-May-04 23:31N 35°41' E 139°56'2 1.0
2016-May-04 21:33N 35°39' E 139°58'4 4.3
2016-May-04 20:33N 35°35' E 139°55'0 0.0
2016-May-04 19:32N 35°35' E 139°55'0 0.0
2016-May-04 18:19N 35°35' E 139°55'0 0.0
2016-May-04 17:30N 35°35' E 139°55'0 0.1
2016-May-04 16:33N 35°35' E 139°55'0 0.0
2016-May-04 15:31N 35°35' E 139°55'0 0.1
2016-May-04 14:33N 35°35' E 139°55'0 0.0
2016-May-04 13:33N 35°35' E 139°55'0 0.0
2016-May-04 12:33N 35°35' E 139°55'0 0.0
2016-May-04 11:30N 35°35' E 139°55'0 0.0
2016-May-04 10:32N 35°35' E 139°55'0 0.0
2016-May-04 09:32N 35°36' E 139°55'0 0.0
2016-May-04 08:30N 35°36' E 139°55'0 0.0
2016-May-04 07:34N 35°36' E 139°55'0 0.0
2016-May-04 06:33N 35°36' E 139°55'0 0.0
2016-May-04 05:31N 35°36' E 139°55'0 0.0
2016-May-04 04:33N 35°36' E 139°55'0 0.0
2016-May-04 03:30N 35°36' E 139°55'0 0.0
2016-May-04 02:27N 35°36' E 139°55'0 0.0
2016-May-04 01:27N 35°36' E 139°55'0 0.0
2016-May-04 00:33N 35°36' E 139°55'2 2.4
2016-May-03 23:32N 35°35' E 139°52'0 0.0
2016-May-03 22:30N 35°35' E 139°52'0 0.0
2016-May-03 21:33N 35°35' E 139°52'0 0.0
2016-May-03 20:28N 35°35' E 139°52'0 0.0
2016-May-03 19:33N 35°35' E 139°52'0 0.0
2016-May-03 18:29N 35°35' E 139°52'0 0.0
2016-May-03 17:33N 35°35' E 139°52'0 0.0
2016-May-03 16:28N 35°35' E 139°52'6 7.2
2016-May-03 15:33N 35°31' E 139°46'1 0.6
2016-May-03 14:31N 35°31' E 139°46'0 0.0
2016-May-03 13:28N 35°31' E 139°46'0 0.0
2016-May-03 12:28N 35°31' E 139°46'0 0.0
2016-May-03 11:31N 35°31' E 139°46'5 4.9
2016-May-03 10:33N 35°27' E 139°43'6 5.6
2016-May-03 09:33N 35°29' E 139°49'0 0.0
2016-May-03 08:32N 35°29' E 139°49'0 0.0
2016-May-03 07:33N 35°29' E 139°49'0 0.0
2016-May-03 06:33N 35°29' E 139°49'0 0.0
2016-May-03 05:33N 35°29' E 139°49'6 6.0
2016-May-03 04:33N 35°34' E 139°54'7 7.1
2016-May-03 03:33N 35°41' E 139°56'0 0.0
2016-May-03 02:17N 35°41' E 139°56'0 0.0
2016-May-03 01:29N 35°41' E 139°56'0 0.0
2016-May-03 00:29N 35°41' E 139°56'0 0.0
2016-May-02 23:23N 35°41' E 139°56'0 0.0
2016-May-02 22:29N 35°41' E 139°56'2 2.3
2016-May-02 21:33N 35°39' E 139°58'4 4.0
2016-May-02 20:33N 35°36' E 139°55'0 0.0
2016-May-02 19:33N 35°36' E 139°55'0 0.0
2016-May-02 18:33N 35°36' E 139°55'0 0.1
2016-May-02 17:30N 35°36' E 139°55'0 0.0
2016-May-02 16:33N 35°36' E 139°55'0 0.0
2016-May-02 15:33N 35°36' E 139°55'0 0.0
2016-May-02 14:27N 35°36' E 139°55'0 0.0
2016-May-02 13:30N 35°36' E 139°55'0 0.1
2016-May-02 12:33N 35°36' E 139°55'0 0.0
2016-May-02 11:33N 35°36' E 139°55'1 1.3
2016-May-02 10:33N 35°35' E 139°54'1110.7
2016-May-02 09:33N 35°27' E 139°45'5 5.1
2016-May-02 08:31N 35°24' E 139°40'0 0.0
2016-May-02 07:31N 35°24' E 139°40'0 0.0
2016-May-02 06:31N 35°24' E 139°40'0 0.0
2016-May-02 05:31N 35°24' E 139°40'0 0.0
2016-May-02 04:32N 35°24' E 139°40'2 2.1
2016-May-02 03:33N 35°24' E 139°42'1111.3
2016-May-02 02:33N 35°32' E 139°53'9 9.2
2016-May-02 01:33N 35°40' E 139°57'0 0.1
2016-May-02 00:22N 35°41' E 139°56'0 0.0
2016-May-01 23:28N 35°41' E 139°56'0 0.0
2016-May-01 22:28N 35°41' E 139°56'2 1.7
2016-May-01 21:33N 35°39' E 139°58'4 4.2
2016-May-01 20:32N 35°36' E 139°55'0 0.0
2016-May-01 19:23N 35°36' E 139°55'0 0.1
2016-May-01 18:32N 35°36' E 139°55'0 0.0
2016-May-01 17:29N 35°36' E 139°55'0 0.0
2016-May-01 16:29N 35°36' E 139°55'0 0.0
2016-May-01 15:29N 35°36' E 139°55'0 0.0
2016-May-01 14:29N 35°36' E 139°55'0 0.0
2016-May-01 13:29N 35°36' E 139°55'0 0.0
2016-May-01 12:23N 35°36' E 139°55'0 0.1
2016-May-01 11:29N 35°36' E 139°55'0 0.0
2016-May-01 10:32N 35°36' E 139°55'0 0.0
2016-May-01 09:33N 35°36' E 139°55'10 9.9
2016-May-01 08:33N 35°28' E 139°47'7 7.2
2016-May-01 07:33N 35°24' E 139°40'0 0.0
2016-May-01 06:33N 35°24' E 139°40'0 0.0
2016-May-01 05:33N 35°24' E 139°40'0 0.0
2016-May-01 04:33N 35°24' E 139°40'0 0.0
2016-May-01 03:33N 35°24' E 139°40'4 4.1
2016-May-01 02:34N 35°26' E 139°44'1111.3
2016-May-01 01:34N 35°34' E 139°54'7 6.8
2016-May-01 00:30N 35°41' E 139°56'0 0.0
2016-Apr-30 23:18N 35°41' E 139°56'0 0.0
2016-Apr-30 22:30N 35°41' E 139°56'2 2.0
2016-Apr-30 21:34N 35°39' E 139°58'4 4.1
2016-Apr-30 20:31N 35°35' E 139°55'0 0.0
2016-Apr-30 19:30N 35°35' E 139°55'0 0.0
2016-Apr-30 18:33N 35°35' E 139°55'0 0.0
2016-Apr-30 17:32N 35°35' E 139°55'0 0.0
2016-Apr-30 16:33N 35°36' E 139°55'0 0.0
2016-Apr-30 15:32N 35°36' E 139°55'0 0.0
2016-Apr-30 14:28N 35°36' E 139°55'0 0.0
2016-Apr-30 13:32N 35°36' E 139°55'0 0.0
2016-Apr-30 12:24N 35°36' E 139°55'0 0.0
2016-Apr-30 11:33N 35°36' E 139°55'0 0.0
2016-Apr-30 10:30N 35°36' E 139°55'0 0.0
2016-Apr-30 09:25N 35°36' E 139°55'0 0.0
2016-Apr-30 08:32N 35°36' E 139°55'0 0.0
2016-Apr-30 07:32N 35°36' E 139°55'0 0.0
2016-Apr-30 06:23N 35°36' E 139°55'0 0.0
2016-Apr-30 05:28N 35°36' E 139°55'0 0.4
2016-Apr-30 04:33N 35°35' E 139°55'1010.4
2016-Apr-30 03:33N 35°26' E 139°48'7 7.1
2016-Apr-30 02:32N 35°24' E 139°40'0 0.0
2016-Apr-30 01:32N 35°24' E 139°40'0 0.0
2016-Apr-30 00:32N 35°24' E 139°40'0 0.0
2016-Apr-29 23:32N 35°24' E 139°40'2 2.0
2016-Apr-29 22:33N 35°23' E 139°40'0 0.1
2016-Apr-29 21:33N 35°23' E 139°40'0 0.1
2016-Apr-29 20:33N 35°23' E 139°40'0 0.0
2016-Apr-29 19:33N 35°23' E 139°40'0 0.0
2016-Apr-29 18:33N 35°23' E 139°40'0 0.0
2016-Apr-29 17:33N 35°23' E 139°40'0 0.0
2016-Apr-29 16:33N 35°23' E 139°40'0 0.0
2016-Apr-29 15:33N 35°23' E 139°40'0 0.0
2016-Apr-29 14:33N 35°23' E 139°40'0 0.0
2016-Apr-29 13:27N 35°23' E 139°40'0 0.0
2016-Apr-29 12:33N 35°23' E 139°40'0 0.0
2016-Apr-29 11:33N 35°23' E 139°40'6 5.9
2016-Apr-29 10:33N 35°26' E 139°46'1111.1
2016-Apr-29 09:33N 35°34' E 139°55'6 5.5
2016-Apr-29 08:24N 35°41' E 139°56'0 0.0
2016-Apr-29 07:33N 35°41' E 139°56'0 0.0
2016-Apr-29 06:33N 35°41' E 139°56'1 0.8
2016-Apr-29 05:33N 35°40' E 139°57'8 7.7
2016-Apr-29 04:34N 35°33' E 139°53'9 9.3
2016-Apr-29 03:34N 35°27' E 139°45'5 5.0
2016-Apr-29 02:33N 35°24' E 139°40'0 0.0
2016-Apr-29 01:34N 35°24' E 139°40'0 0.0
2016-Apr-29 00:34N 35°24' E 139°40'0 0.0
2016-Apr-28 23:33N 35°24' E 139°40'2 2.3
2016-Apr-28 22:34N 35°25' E 139°42'4 4.2
2016-Apr-28 21:32N 35°29' E 139°39'0 0.0
2016-Apr-28 20:32N 35°29' E 139°39'0 0.0
2016-Apr-28 19:32N 35°29' E 139°39'0 0.0
2016-Apr-28 18:32N 35°29' E 139°39'0 0.0
2016-Apr-28 17:32N 35°29' E 139°39'0 0.0
2016-Apr-28 16:32N 35°29' E 139°39'0 0.0
2016-Apr-28 15:32N 35°29' E 139°39'0 0.0
2016-Apr-28 14:32N 35°29' E 139°39'0 0.0
2016-Apr-28 13:32N 35°29' E 139°39'0 0.0
2016-Apr-28 12:32N 35°29' E 139°39'0 0.0
2016-Apr-28 11:32N 35°29' E 139°39'0 0.0
2016-Apr-28 10:32N 35°29' E 139°39'0 0.0
2016-Apr-28 09:32N 35°29' E 139°39'0 0.0
2016-Apr-28 08:32N 35°29' E 139°39'0 0.0
2016-Apr-28 07:32N 35°29' E 139°39'0 0.0
2016-Apr-28 06:32N 35°29' E 139°39'1 1.4
2016-Apr-28 05:33N 35°28' E 139°40'10 9.7
2016-Apr-28 04:33N 35°31' E 139°51'1010.4
2016-Apr-28 03:33N 35°40' E 139°57'1 1.0
2016-Apr-28 02:28N 35°41' E 139°56'0 0.0
2016-Apr-28 01:28N 35°41' E 139°56'0 0.0
2016-Apr-28 00:28N 35°41' E 139°56'0 0.0
2016-Apr-27 23:28N 35°41' E 139°56'2 1.2
2016-Apr-27 21:33N 35°39' E 139°58'4 3.4
2016-Apr-27 20:23N 35°36' E 139°55'0 0.0
2016-Apr-27 19:29N 35°36' E 139°55'0 0.0
2016-Apr-27 18:17N 35°36' E 139°55'0 0.0
2016-Apr-27 17:29N 35°36' E 139°55'0 0.0
2016-Apr-27 16:32N 35°36' E 139°55'0 0.0
2016-Apr-27 15:32N 35°36' E 139°55'0 0.0
2016-Apr-27 14:29N 35°36' E 139°55'0 0.0
2016-Apr-27 13:29N 35°36' E 139°55'0 0.0
2016-Apr-27 12:29N 35°36' E 139°55'0 0.1
2016-Apr-27 11:29N 35°36' E 139°55'0 0.1
2016-Apr-27 10:33N 35°36' E 139°55'1010.0
2016-Apr-27 09:33N 35°28' E 139°47'7 7.2
2016-Apr-27 08:33N 35°24' E 139°40'0 0.0
2016-Apr-27 07:33N 35°24' E 139°40'0 0.0
2016-Apr-27 06:33N 35°24' E 139°40'0 0.0
2016-Apr-27 05:33N 35°24' E 139°40'0 0.0
2016-Apr-27 04:33N 35°24' E 139°40'0 0.0
2016-Apr-27 03:33N 35°24' E 139°40'8 7.9
2016-Apr-27 02:33N 35°29' E 139°48'1111.4
2016-Apr-27 01:33N 35°37' E 139°57'4 2.9
2016-Apr-27 00:16N 35°41' E 139°56'0 0.0
2016-Apr-26 23:22N 35°41' E 139°56'0 0.0
2016-Apr-26 22:10N 35°41' E 139°56'3 5.0
2016-Apr-26 21:33N 35°38' E 139°58'  
Track history (hours):
 
Tides and Currents Weather Stations Pressure Air Temp Water Temp Dewpoint Dewpoint Depression Visibility Wind Speed Wind Dir Waves Ship Positions

Shokyu Maru

Last reported at 2016-May-06 21:33 UTC. Time now 2016-May-06 22:32 UTC.
Position N 35°39' E 139°58'.

Length 91 m; draft 5.1 m.

Type: Ship. MMSI: 431000253.

Date/timePositionNaut miles runAvg speedWind from/ knotsBaromVisibWave heightAir tempDewpointWater temp
2016-May-06 21:33N 35°39' E 139°58'4 3.9
2016-May-06 20:30N 35°36' E 139°55'0 0.0
2016-May-06 19:32N 35°36' E 139°55'0 0.0
2016-May-06 18:32N 35°36' E 139°55'0 0.0
2016-May-06 17:32N 35°36' E 139°55'0 0.0
2016-May-06 16:29N 35°36' E 139°55'0 0.0
2016-May-06 15:29N 35°36' E 139°55'5 5.1
2016-May-06 14:34N 35°32' E 139°51'5 5.3
2016-May-06 13:33N 35°30' E 139°45'0 0.0
2016-May-06 12:33N 35°30' E 139°45'0 0.0
2016-May-06 11:33N 35°30' E 139°45'0 0.0
2016-May-06 10:33N 35°30' E 139°45'2 1.7
2016-May-06 09:34N 35°29' E 139°43'5 4.5
2016-May-06 08:32N 35°29' E 139°49'0 0.0
2016-May-06 07:32N 35°29' E 139°49'0 0.0
2016-May-06 06:32N 35°29' E 139°49'0 0.0
2016-May-06 05:29N 35°29' E 139°49'0 0.1
2016-May-06 04:32N 35°29' E 139°49'0 0.1
2016-May-06 03:32N 35°29' E 139°49'3 2.6
2016-May-06 02:33N 35°31' E 139°51'10 9.7
2016-May-06 01:33N 35°39' E 139°58'2 2.0
2016-May-06 00:30N 35°41' E 139°56'0 0.0
2016-May-05 23:12N 35°41' E 139°56'0 0.0
2016-May-05 22:30N 35°41' E 139°56'2 2.1
2016-May-05 21:34N 35°39' E 139°58'4 4.1
2016-May-05 20:34N 35°36' E 139°55'0 0.0
2016-May-05 19:31N 35°36' E 139°55'0 0.0
2016-May-05 18:28N 35°36' E 139°55'0 0.0
2016-May-05 17:31N 35°36' E 139°55'0 0.1
2016-May-05 16:31N 35°36' E 139°55'0 0.0
2016-May-05 15:04N 35°36' E 139°55'0 0.0
2016-May-05 14:28N 35°36' E 139°55'0 0.0
2016-May-05 13:31N 35°36' E 139°55'0 0.0
2016-May-05 12:31N 35°36' E 139°55'0 0.0
2016-May-05 11:31N 35°36' E 139°55'3 2.9
2016-May-05 10:34N 35°33' E 139°53'1010.1
2016-May-05 09:33N 35°26' E 139°44'4 4.3
2016-May-05 08:33N 35°24' E 139°40'0 0.0
2016-May-05 07:33N 35°24' E 139°40'0 0.0
2016-May-05 06:33N 35°24' E 139°40'0 0.0
2016-May-05 05:33N 35°24' E 139°40'2 2.2
2016-May-05 04:33N 35°23' E 139°41'5 5.1
2016-May-05 03:33N 35°27' E 139°45'8 8.5
2016-May-05 02:33N 35°32' E 139°53'8 7.9
2016-May-05 01:33N 35°40' E 139°57'1 1.2
2016-May-05 00:31N 35°41' E 139°56'0 0.0
2016-May-04 23:31N 35°41' E 139°56'2 1.0
2016-May-04 21:33N 35°39' E 139°58'4 4.3
2016-May-04 20:33N 35°35' E 139°55'0 0.0
2016-May-04 19:32N 35°35' E 139°55'0 0.0
2016-May-04 18:19N 35°35' E 139°55'0 0.0
2016-May-04 17:30N 35°35' E 139°55'0 0.1
2016-May-04 16:33N 35°35' E 139°55'0 0.0
2016-May-04 15:31N 35°35' E 139°55'0 0.1
2016-May-04 14:33N 35°35' E 139°55'0 0.0
2016-May-04 13:33N 35°35' E 139°55'0 0.0
2016-May-04 12:33N 35°35' E 139°55'0 0.0
2016-May-04 11:30N 35°35' E 139°55'0 0.0
2016-May-04 10:32N 35°35' E 139°55'0 0.0
2016-May-04 09:32N 35°36' E 139°55'0 0.0
2016-May-04 08:30N 35°36' E 139°55'0 0.0
2016-May-04 07:34N 35°36' E 139°55'0 0.0
2016-May-04 06:33N 35°36' E 139°55'0 0.0
2016-May-04 05:31N 35°36' E 139°55'0 0.0
2016-May-04 04:33N 35°36' E 139°55'0 0.0
2016-May-04 03:30N 35°36' E 139°55'0 0.0
2016-May-04 02:27N 35°36' E 139°55'0 0.0
2016-May-04 01:27N 35°36' E 139°55'0 0.0
2016-May-04 00:33N 35°36' E 139°55'2 2.4
2016-May-03 23:32N 35°35' E 139°52'0 0.0
2016-May-03 22:30N 35°35' E 139°52'0 0.0
2016-May-03 21:33N 35°35' E 139°52'0 0.0
2016-May-03 20:28N 35°35' E 139°52'0 0.0
2016-May-03 19:33N 35°35' E 139°52'0 0.0
2016-May-03 18:29N 35°35' E 139°52'0 0.0
2016-May-03 17:33N 35°35' E 139°52'0 0.0
2016-May-03 16:28N 35°35' E 139°52'6 7.2
2016-May-03 15:33N 35°31' E 139°46'1 0.6
2016-May-03 14:31N 35°31' E 139°46'0 0.0
2016-May-03 13:28N 35°31' E 139°46'0 0.0
2016-May-03 12:28N 35°31' E 139°46'0 0.0
2016-May-03 11:31N 35°31' E 139°46'5 4.9
2016-May-03 10:33N 35°27' E 139°43'6 5.6
2016-May-03 09:33N 35°29' E 139°49'0 0.0
2016-May-03 08:32N 35°29' E 139°49'0 0.0
2016-May-03 07:33N 35°29' E 139°49'0 0.0
2016-May-03 06:33N 35°29' E 139°49'0 0.0
2016-May-03 05:33N 35°29' E 139°49'6 6.0
2016-May-03 04:33N 35°34' E 139°54'7 7.1
2016-May-03 03:33N 35°41' E 139°56'0 0.0
2016-May-03 02:17N 35°41' E 139°56'0 0.0
2016-May-03 01:29N 35°41' E 139°56'0 0.0
2016-May-03 00:29N 35°41' E 139°56'0 0.0
2016-May-02 23:23N 35°41' E 139°56'0 0.0
2016-May-02 22:29N 35°41' E 139°56'2 2.3
2016-May-02 21:33N 35°39' E 139°58'4 4.0
2016-May-02 20:33N 35°36' E 139°55'0 0.0
2016-May-02 19:33N 35°36' E 139°55'0 0.0
2016-May-02 18:33N 35°36' E 139°55'0 0.1
2016-May-02 17:30N 35°36' E 139°55'0 0.0
2016-May-02 16:33N 35°36' E 139°55'0 0.0
2016-May-02 15:33N 35°36' E 139°55'0 0.0
2016-May-02 14:27N 35°36' E 139°55'0 0.0
2016-May-02 13:30N 35°36' E 139°55'0 0.1
2016-May-02 12:33N 35°36' E 139°55'0 0.0
2016-May-02 11:33N 35°36' E 139°55'1 1.3
2016-May-02 10:33N 35°35' E 139°54'1110.7
2016-May-02 09:33N 35°27' E 139°45'5 5.1
2016-May-02 08:31N 35°24' E 139°40'0 0.0
2016-May-02 07:31N 35°24' E 139°40'0 0.0
2016-May-02 06:31N 35°24' E 139°40'0 0.0
2016-May-02 05:31N 35°24' E 139°40'0 0.0
2016-May-02 04:32N 35°24' E 139°40'2 2.1
2016-May-02 03:33N 35°24' E 139°42'1111.3
2016-May-02 02:33N 35°32' E 139°53'9 9.2
2016-May-02 01:33N 35°40' E 139°57'0 0.1
2016-May-02 00:22N 35°41' E 139°56'0 0.0
2016-May-01 23:28N 35°41' E 139°56'0 0.0
2016-May-01 22:28N 35°41' E 139°56'2 1.7
2016-May-01 21:33N 35°39' E 139°58'4 4.2
2016-May-01 20:32N 35°36' E 139°55'0 0.0
2016-May-01 19:23N 35°36' E 139°55'0 0.1
2016-May-01 18:32N 35°36' E 139°55'0 0.0
2016-May-01 17:29N 35°36' E 139°55'0 0.0
2016-May-01 16:29N 35°36' E 139°55'0 0.0
2016-May-01 15:29N 35°36' E 139°55'0 0.0
2016-May-01 14:29N 35°36' E 139°55'0 0.0
2016-May-01 13:29N 35°36' E 139°55'0 0.0
2016-May-01 12:23N 35°36' E 139°55'0 0.1
2016-May-01 11:29N 35°36' E 139°55'0 0.0
2016-May-01 10:32N 35°36' E 139°55'0 0.0
2016-May-01 09:33N 35°36' E 139°55'10 9.9
2016-May-01 08:33N 35°28' E 139°47'7 7.2
2016-May-01 07:33N 35°24' E 139°40'0 0.0
2016-May-01 06:33N 35°24' E 139°40'0 0.0
2016-May-01 05:33N 35°24' E 139°40'0 0.0
2016-May-01 04:33N 35°24' E 139°40'0 0.0
2016-May-01 03:33N 35°24' E 139°40'4 4.1
2016-May-01 02:34N 35°26' E 139°44'1111.3
2016-May-01 01:34N 35°34' E 139°54'7 6.8
2016-May-01 00:30N 35°41' E 139°56'0 0.0
2016-Apr-30 23:18N 35°41' E 139°56'0 0.0
2016-Apr-30 22:30N 35°41' E 139°56'2 2.0
2016-Apr-30 21:34N 35°39' E 139°58'4 4.1
2016-Apr-30 20:31N 35°35' E 139°55'0 0.0
2016-Apr-30 19:30N 35°35' E 139°55'0 0.0
2016-Apr-30 18:33N 35°35' E 139°55'0 0.0
2016-Apr-30 17:32N 35°35' E 139°55'0 0.0
2016-Apr-30 16:33N 35°36' E 139°55'0 0.0
2016-Apr-30 15:32N 35°36' E 139°55'0 0.0
2016-Apr-30 14:28N 35°36' E 139°55'0 0.0
2016-Apr-30 13:32N 35°36' E 139°55'0 0.0
2016-Apr-30 12:24N 35°36' E 139°55'0 0.0
2016-Apr-30 11:33N 35°36' E 139°55'0 0.0
2016-Apr-30 10:30N 35°36' E 139°55'0 0.0
2016-Apr-30 09:25N 35°36' E 139°55'0 0.0
2016-Apr-30 08:32N 35°36' E 139°55'0 0.0
2016-Apr-30 07:32N 35°36' E 139°55'0 0.0
2016-Apr-30 06:23N 35°36' E 139°55'0 0.0
2016-Apr-30 05:28N 35°36' E 139°55'0 0.4
2016-Apr-30 04:33N 35°35' E 139°55'1010.4
2016-Apr-30 03:33N 35°26' E 139°48'7 7.1
2016-Apr-30 02:32N 35°24' E 139°40'0 0.0
2016-Apr-30 01:32N 35°24' E 139°40'0 0.0
2016-Apr-30 00:32N 35°24' E 139°40'0 0.0
2016-Apr-29 23:32N 35°24' E 139°40'2 2.0
2016-Apr-29 22:33N 35°23' E 139°40'0 0.1
2016-Apr-29 21:33N 35°23' E 139°40'0 0.1
2016-Apr-29 20:33N 35°23' E 139°40'0 0.0
2016-Apr-29 19:33N 35°23' E 139°40'0 0.0
2016-Apr-29 18:33N 35°23' E 139°40'0 0.0
2016-Apr-29 17:33N 35°23' E 139°40'0 0.0
2016-Apr-29 16:33N 35°23' E 139°40'0 0.0
2016-Apr-29 15:33N 35°23' E 139°40'0 0.0
2016-Apr-29 14:33N 35°23' E 139°40'0 0.0
2016-Apr-29 13:27N 35°23' E 139°40'0 0.0
2016-Apr-29 12:33N 35°23' E 139°40'0 0.0
2016-Apr-29 11:33N 35°23' E 139°40'6 5.9
2016-Apr-29 10:33N 35°26' E 139°46'1111.1
2016-Apr-29 09:33N 35°34' E 139°55'6 5.5
2016-Apr-29 08:24N 35°41' E 139°56'0 0.0
2016-Apr-29 07:33N 35°41' E 139°56'0 0.0
2016-Apr-29 06:33N 35°41' E 139°56'1 0.8
2016-Apr-29 05:33N 35°40' E 139°57'8 7.7
2016-Apr-29 04:34N 35°33' E 139°53'9 9.3
2016-Apr-29 03:34N 35°27' E 139°45'5 5.0
2016-Apr-29 02:33N 35°24' E 139°40'0 0.0
2016-Apr-29 01:34N 35°24' E 139°40'0 0.0
2016-Apr-29 00:34N 35°24' E 139°40'0 0.0
2016-Apr-28 23:33N 35°24' E 139°40'2 2.3
2016-Apr-28 22:34N 35°25' E 139°42'4 4.2
2016-Apr-28 21:32N 35°29' E 139°39'0 0.0
2016-Apr-28 20:32N 35°29' E 139°39'0 0.0
2016-Apr-28 19:32N 35°29' E 139°39'0 0.0
2016-Apr-28 18:32N 35°29' E 139°39'0 0.0
2016-Apr-28 17:32N 35°29' E 139°39'0 0.0
2016-Apr-28 16:32N 35°29' E 139°39'0 0.0
2016-Apr-28 15:32N 35°29' E 139°39'0 0.0
2016-Apr-28 14:32N 35°29' E 139°39'0 0.0
2016-Apr-28 13:32N 35°29' E 139°39'0 0.0
2016-Apr-28 12:32N 35°29' E 139°39'0 0.0
2016-Apr-28 11:32N 35°29' E 139°39'0 0.0
2016-Apr-28 10:32N 35°29' E 139°39'0 0.0
2016-Apr-28 09:32N 35°29' E 139°39'0 0.0
2016-Apr-28 08:32N 35°29' E 139°39'0 0.0
2016-Apr-28 07:32N 35°29' E 139°39'0 0.0
2016-Apr-28 06:32N 35°29' E 139°39'1 1.4
2016-Apr-28 05:33N 35°28' E 139°40'10 9.7
2016-Apr-28 04:33N 35°31' E 139°51'1010.4
2016-Apr-28 03:33N 35°40' E 139°57'1 1.0
2016-Apr-28 02:28N 35°41' E 139°56'0 0.0
2016-Apr-28 01:28N 35°41' E 139°56'0 0.0
2016-Apr-28 00:28N 35°41' E 139°56'0 0.0
2016-Apr-27 23:28N 35°41' E 139°56'2 1.2
2016-Apr-27 21:33N 35°39' E 139°58'4 3.4
2016-Apr-27 20:23N 35°36' E 139°55'0 0.0
2016-Apr-27 19:29N 35°36' E 139°55'0 0.0
2016-Apr-27 18:17N 35°36' E 139°55'0 0.0
2016-Apr-27 17:29N 35°36' E 139°55'0 0.0
2016-Apr-27 16:32N 35°36' E 139°55'0 0.0
2016-Apr-27 15:32N 35°36' E 139°55'0 0.0
2016-Apr-27 14:29N 35°36' E 139°55'0 0.0
2016-Apr-27 13:29N 35°36' E 139°55'0 0.0
2016-Apr-27 12:29N 35°36' E 139°55'0 0.1
2016-Apr-27 11:29N 35°36' E 139°55'0 0.1
2016-Apr-27 10:33N 35°36' E 139°55'1010.0
2016-Apr-27 09:33N 35°28' E 139°47'7 7.2
2016-Apr-27 08:33N 35°24' E 139°40'0 0.0
2016-Apr-27 07:33N 35°24' E 139°40'0 0.0
2016-Apr-27 06:33N 35°24' E 139°40'0 0.0
2016-Apr-27 05:33N 35°24' E 139°40'0 0.0
2016-Apr-27 04:33N 35°24' E 139°40'0 0.0
2016-Apr-27 03:33N 35°24' E 139°40'8 7.9
2016-Apr-27 02:33N 35°29' E 139°48'1111.4
2016-Apr-27 01:33N 35°37' E 139°57'4 2.9
2016-Apr-27 00:16N 35°41' E 139°56'0 0.0
2016-Apr-26 23:22N 35°41' E 139°56'0 0.0
2016-Apr-26 22:10N 35°41' E 139°56'3 5.0
2016-Apr-26 21:33N 35°38' E 139°58'  

Dump ship's entire track history